createdAt,value
2023-09-18T00:00:36.452Z,100.00
2023-09-18T00:03:06.926Z,100.00
2023-09-18T00:05:34.347Z,100.00
2023-09-18T00:08:03.085Z,100.00
2023-09-18T00:10:31.524Z,100.00
2023-09-18T00:12:58.629Z,100.00
2023-09-18T00:15:26.433Z,100.00
2023-09-18T00:17:54.839Z,100.00
2023-09-18T00:20:21.843Z,100.00
2023-09-18T00:22:48.691Z,100.00
2023-09-18T00:25:16.534Z,100.00
2023-09-18T00:27:43.609Z,100.00
2023-09-18T00:30:10.841Z,100.00
2023-09-18T00:32:37.643Z,100.00
2023-09-18T00:35:05.614Z,100.00
2023-09-18T00:37:32.394Z,100.00
2023-09-18T00:39:59.281Z,100.00
2023-09-18T00:42:26.849Z,100.00
2023-09-18T00:44:54.046Z,100.00
2023-09-18T00:47:21.089Z,100.00
2023-09-18T00:49:51.174Z,100.00
2023-09-18T00:52:18.925Z,100.00
2023-09-18T00:54:46.398Z,100.00
2023-09-18T00:57:14.203Z,100.00
2023-09-18T00:59:41.197Z,100.00
2023-09-18T01:02:09.784Z,100.00
2023-09-18T01:04:36.856Z,100.00
2023-09-18T01:07:06.480Z,100.00
2023-09-18T01:09:35.025Z,100.00
2023-09-18T01:12:01.647Z,100.00
2023-09-18T01:14:38.412Z,100.00
2023-09-18T01:17:09.012Z,100.00
2023-09-18T01:19:47.672Z,100.00
2023-09-18T01:22:16.503Z,100.00
2023-09-18T01:24:44.638Z,100.00
2023-09-18T01:27:18.214Z,100.00
2023-09-18T01:29:46.396Z,100.00
2023-09-18T01:32:13.959Z,100.00
2023-09-18T01:34:48.509Z,100.00
2023-09-18T01:37:17.787Z,100.00
2023-09-18T01:39:47.006Z,100.00
2023-09-18T01:42:14.073Z,100.00
2023-09-18T01:44:41.327Z,100.00
2023-09-18T01:47:10.772Z,100.00
2023-09-18T01:49:39.462Z,100.00
2023-09-18T01:52:09.198Z,100.00
2023-09-18T01:54:37.428Z,100.00
2023-09-18T01:57:05.752Z,100.00
2023-09-18T01:59:32.717Z,100.00
2023-09-18T02:02:00.239Z,100.00
2023-09-18T02:05:06.527Z,100.00
2023-09-18T02:07:15.303Z,100.00
2023-09-18T02:09:42.662Z,100.00
2023-09-18T02:12:09.457Z,100.00
2023-09-18T02:14:36.356Z,100.00
2023-09-18T02:17:04.176Z,100.00
2023-09-18T02:19:31.090Z,100.00
2023-09-18T02:21:58.982Z,100.00
2023-09-18T02:24:25.961Z,100.00
2023-09-18T02:26:54.598Z,100.00
2023-09-18T02:29:22.013Z,100.00
2023-09-18T02:31:48.789Z,100.00
2023-09-18T02:34:15.573Z,100.00
2023-09-18T02:36:42.330Z,100.00
2023-09-18T02:39:09.071Z,100.00
2023-09-18T02:41:35.877Z,100.00
2023-09-18T02:44:02.669Z,100.00
2023-09-18T02:46:30.680Z,100.00
2023-09-18T02:48:57.532Z,100.00
2023-09-18T02:51:24.734Z,100.00
2023-09-18T02:53:52.209Z,100.00
2023-09-18T02:56:19.764Z,100.00
2023-09-18T02:58:46.580Z,100.00
2023-09-18T03:01:13.409Z,100.00
2023-09-18T03:03:43.065Z,100.00
2023-09-18T03:06:10.792Z,100.00
2023-09-18T03:08:38.088Z,100.00
2023-09-18T03:11:12.896Z,100.00
2023-09-18T03:13:45.514Z,100.00
2023-09-18T03:16:13.354Z,100.00
2023-09-18T03:18:40.728Z,100.00
2023-09-18T03:21:07.501Z,100.00
2023-09-18T03:23:34.666Z,100.00
2023-09-18T03:26:01.981Z,100.00
2023-09-18T03:28:28.890Z,100.00
2023-09-18T03:30:56.001Z,100.00
2023-09-18T03:33:24.563Z,100.00
2023-09-18T03:35:55.856Z,100.00
2023-09-18T03:38:26.193Z,100.00
2023-09-18T03:40:53.640Z,100.00
2023-09-18T03:43:22.417Z,100.00
2023-09-18T03:45:50.172Z,100.00
2023-09-18T03:48:17.710Z,100.00
2023-09-18T03:50:44.716Z,100.00
2023-09-18T03:53:12.252Z,100.00
2023-09-18T03:55:39.410Z,100.00
2023-09-18T03:58:06.565Z,100.00
2023-09-18T04:00:33.608Z,100.00
2023-09-18T04:03:00.572Z,100.00
2023-09-18T04:05:28.386Z,100.00
2023-09-18T04:07:57.271Z,100.00
2023-09-18T04:10:24.922Z,100.00
2023-09-18T04:12:53.422Z,100.00
2023-09-18T04:15:21.140Z,100.00
2023-09-18T04:17:48.868Z,100.00
2023-09-18T04:20:16.041Z,100.00
2023-09-18T04:22:51.358Z,100.00
2023-09-18T04:25:20.820Z,100.00
2023-09-18T04:27:51.438Z,100.00
2023-09-18T04:30:20.973Z,100.00
2023-09-18T04:32:48.741Z,100.00
2023-09-18T04:35:16.116Z,100.00
2023-09-18T04:37:43.113Z,100.00
2023-09-18T04:40:11.473Z,100.00
2023-09-18T04:42:44.588Z,100.00
2023-09-18T04:45:11.406Z,100.00
2023-09-18T04:47:38.854Z,100.00
2023-09-18T04:50:10.132Z,100.00
2023-09-18T04:52:39.235Z,100.00
2023-09-18T04:55:09.845Z,100.00
2023-09-18T04:57:36.889Z,100.00
2023-09-18T05:00:14.483Z,100.00
2023-09-18T05:02:45.242Z,100.00
2023-09-18T05:05:12.859Z,100.00
2023-09-18T05:07:40.308Z,100.00
2023-09-18T05:10:07.638Z,100.00
2023-09-18T05:12:34.449Z,100.00
2023-09-18T05:15:01.257Z,100.00
2023-09-18T05:17:43.636Z,100.00
2023-09-18T05:20:15.383Z,100.00
2023-09-18T05:22:43.274Z,100.00
2023-09-18T05:25:11.292Z,100.00
2023-09-18T05:27:49.027Z,100.00
2023-09-18T05:30:17.463Z,100.00
2023-09-18T05:32:45.792Z,100.00
2023-09-18T05:35:14.547Z,100.00
2023-09-18T05:37:42.943Z,100.00
2023-09-18T05:40:12.174Z,100.00
2023-09-18T05:42:40.362Z,100.00
2023-09-18T05:45:07.786Z,100.00
2023-09-18T05:47:36.935Z,100.00
2023-09-18T05:50:05.384Z,100.00
2023-09-18T05:52:32.175Z,100.00
2023-09-18T05:54:58.916Z,100.00
2023-09-18T05:57:25.644Z,100.00
2023-09-18T05:59:52.428Z,100.00
2023-09-18T06:02:19.362Z,100.00
2023-09-18T06:04:47.011Z,100.00
2023-09-18T06:07:14.280Z,100.00
2023-09-18T06:09:41.115Z,100.00
2023-09-18T06:12:08.493Z,100.00
2023-09-18T06:14:36.284Z,100.00
2023-09-18T06:17:03.301Z,100.00
2023-09-18T06:19:30.149Z,100.00
2023-09-18T06:21:56.874Z,100.00
2023-09-18T06:24:23.613Z,100.00
2023-09-18T06:26:52.087Z,100.00
2023-09-18T06:29:19.252Z,100.00
2023-09-18T06:31:46.732Z,100.00
2023-09-18T06:34:13.870Z,100.00
2023-09-18T06:36:40.629Z,100.00
2023-09-18T06:39:08.379Z,100.00
2023-09-18T06:41:35.305Z,100.00
2023-09-18T06:44:04.697Z,100.00
2023-09-18T06:46:31.705Z,100.00
2023-09-18T06:49:01.139Z,100.00
2023-09-18T06:54:04.130Z,100.00
2023-09-18T06:56:30.895Z,100.00
2023-09-18T06:58:57.646Z,100.00
2023-09-18T07:01:25.688Z,100.00
2023-09-18T07:03:52.715Z,100.00
2023-09-18T07:06:23.074Z,100.00
2023-09-18T07:08:52.940Z,100.00
2023-09-18T07:11:20.060Z,100.00
2023-09-18T07:13:46.900Z,100.00
2023-09-18T07:16:14.433Z,100.00
2023-09-18T07:18:41.444Z,100.00
2023-09-18T07:21:08.836Z,100.00
2023-09-18T07:23:38.262Z,100.00
2023-09-18T07:26:05.208Z,100.00
2023-09-18T07:28:31.980Z,100.00
2023-09-18T07:31:06.165Z,100.00
2023-09-18T07:33:33.046Z,100.00
2023-09-18T07:35:59.867Z,100.00
2023-09-18T07:38:26.658Z,100.00
2023-09-18T07:40:53.420Z,100.00
2023-09-18T07:43:20.278Z,100.00
2023-09-18T07:45:47.056Z,100.00
2023-09-18T07:48:13.889Z,100.00
2023-09-18T07:50:45.454Z,100.00
2023-09-18T07:53:12.462Z,100.00
2023-09-18T07:55:39.173Z,100.00
2023-09-18T07:58:06.295Z,100.00
2023-09-18T08:00:34.351Z,100.00
2023-09-18T08:03:02.206Z,100.00
2023-09-18T08:05:29.492Z,100.00
2023-09-18T08:08:00.498Z,100.00
2023-09-18T08:10:27.489Z,100.00
2023-09-18T08:12:54.782Z,100.00
2023-09-18T08:15:21.941Z,100.00
2023-09-18T08:17:50.724Z,100.00
2023-09-18T08:20:17.913Z,100.00
2023-09-18T08:22:45.346Z,100.00
2023-09-18T08:25:12.607Z,98.72
2023-09-18T08:27:45.146Z,97.95
2023-09-18T08:30:13.891Z,96.33
2023-09-18T08:32:42.312Z,95.27
2023-09-18T08:35:10.247Z,94.76
2023-09-18T08:37:37.081Z,92.71
2023-09-18T08:40:10.980Z,92.13
2023-09-18T08:42:49.222Z,91.20
2023-09-18T08:45:23.532Z,90.66
2023-09-18T08:47:52.661Z,88.43
2023-09-18T08:50:20.819Z,90.16
2023-09-18T08:52:49.177Z,90.08
2023-09-18T08:55:16.162Z,90.06
2023-09-18T08:57:44.241Z,90.10
2023-09-18T09:00:17.623Z,90.32
2023-09-18T09:02:50.355Z,90.34
2023-09-18T09:05:17.495Z,90.86
2023-09-18T09:07:44.519Z,90.73
2023-09-18T09:10:11.389Z,90.80
2023-09-18T09:12:54.805Z,90.76
2023-09-18T09:15:24.009Z,90.72
2023-09-18T09:17:52.969Z,90.86
2023-09-18T09:20:22.701Z,91.08
2023-09-18T09:22:49.495Z,90.49
2023-09-18T09:25:29.675Z,90.22
2023-09-18T09:27:56.559Z,91.05
2023-09-18T09:30:28.316Z,90.99
2023-09-18T09:32:58.521Z,89.97
2023-09-18T09:35:28.444Z,91.45
2023-09-18T09:37:58.815Z,91.27
2023-09-18T09:40:26.926Z,91.52
2023-09-18T09:43:01.424Z,91.48
2023-09-18T09:45:36.807Z,91.84
2023-09-18T09:48:05.774Z,91.70
2023-09-18T09:50:33.502Z,92.09
2023-09-18T09:53:00.788Z,91.94
2023-09-18T09:55:35.084Z,92.31
2023-09-18T09:58:03.899Z,92.92
2023-09-18T10:00:37.588Z,93.80
2023-09-18T10:03:09.963Z,95.45
2023-09-18T10:05:45.780Z,97.37
2023-09-18T10:08:23.031Z,100.00
2023-09-18T10:10:52.955Z,100.00
2023-09-18T10:13:28.464Z,100.00
2023-09-18T10:15:57.416Z,100.00
2023-09-18T10:18:30.517Z,100.00
2023-09-18T10:21:13.834Z,100.00
2023-09-18T10:23:54.740Z,100.00
2023-09-18T10:26:31.478Z,100.00
2023-09-18T10:29:01.099Z,100.00
2023-09-18T10:31:29.486Z,100.00
2023-09-18T10:33:58.415Z,100.00
2023-09-18T10:36:26.853Z,100.00
2023-09-18T10:38:55.258Z,100.00
2023-09-18T10:41:22.597Z,100.00
2023-09-18T10:43:54.271Z,100.00
2023-09-18T10:46:22.137Z,100.00
2023-09-18T10:48:50.223Z,100.00
2023-09-18T10:51:22.199Z,100.00
2023-09-18T10:53:50.210Z,100.00
2023-09-18T10:56:17.504Z,100.00
2023-09-18T10:58:44.814Z,100.00
2023-09-18T11:01:14.701Z,100.00
2023-09-18T11:03:42.812Z,100.00
2023-09-18T11:06:15.319Z,100.00
2023-09-18T11:08:51.226Z,100.00
2023-09-18T11:11:21.580Z,100.00
2023-09-18T11:13:51.209Z,100.00
2023-09-18T11:16:35.202Z,100.00
2023-09-18T11:19:01.984Z,100.00
2023-09-18T11:21:30.610Z,100.00
2023-09-18T11:24:02.151Z,100.00
2023-09-18T11:26:42.197Z,100.00
2023-09-18T11:29:13.279Z,100.00
2023-09-18T11:31:51.825Z,100.00
2023-09-18T11:34:29.652Z,100.00
2023-09-18T11:36:57.270Z,100.00
2023-09-18T11:39:42.057Z,100.00
2023-09-18T11:42:14.498Z,100.00
2023-09-18T11:44:48.194Z,100.00
2023-09-18T11:47:23.566Z,100.00
2023-09-18T11:49:59.617Z,100.00
2023-09-18T11:52:31.585Z,100.00
2023-09-18T11:55:00.421Z,100.00
2023-09-18T11:57:29.956Z,100.00
2023-09-18T12:00:01.318Z,100.00
2023-09-18T12:02:42.526Z,100.00
2023-09-18T12:05:16.360Z,100.00
2023-09-18T12:07:48.600Z,100.00
2023-09-18T12:10:18.402Z,100.00
2023-09-18T12:12:45.667Z,100.00
2023-09-18T12:15:13.403Z,100.00
2023-09-18T12:17:40.311Z,100.00
2023-09-18T12:20:07.676Z,100.00
2023-09-18T12:22:37.923Z,100.00
2023-09-18T12:25:17.295Z,100.00
2023-09-18T12:27:45.020Z,100.00
2023-09-18T12:30:13.640Z,100.00
2023-09-18T12:32:40.920Z,100.00
2023-09-18T12:35:08.412Z,100.00
2023-09-18T12:37:42.333Z,100.00
2023-09-18T12:40:22.660Z,100.00
2023-09-18T12:42:50.506Z,100.00
2023-09-18T12:45:18.458Z,100.00
2023-09-18T12:47:46.093Z,100.00
2023-09-18T12:50:16.051Z,100.00
2023-09-18T12:52:43.281Z,100.00
2023-09-18T12:55:21.271Z,100.00
2023-09-18T12:57:48.317Z,100.00
2023-09-18T13:00:15.979Z,100.00
2023-09-18T13:02:46.137Z,100.00
2023-09-18T13:05:15.401Z,100.00
2023-09-18T13:07:46.522Z,100.00
2023-09-18T13:10:14.739Z,100.00
2023-09-18T13:12:55.342Z,100.00
2023-09-18T13:15:30.917Z,100.00
2023-09-18T13:18:00.445Z,100.00
2023-09-18T13:20:30.509Z,100.00
2023-09-18T13:22:59.946Z,100.00
2023-09-18T13:25:32.055Z,100.00
2023-09-18T13:27:58.848Z,100.00
2023-09-18T13:30:25.615Z,100.00
2023-09-18T13:32:52.704Z,100.00
2023-09-18T13:35:20.338Z,100.00
2023-09-18T13:37:47.362Z,100.00
2023-09-18T13:40:14.211Z,100.00
2023-09-18T13:42:42.125Z,100.00
2023-09-18T13:45:09.435Z,100.00
2023-09-18T13:47:37.125Z,100.00
2023-09-18T13:50:05.980Z,100.00
2023-09-18T13:52:34.860Z,100.00
2023-09-18T13:55:04.533Z,100.00
2023-09-18T13:57:31.381Z,100.00
2023-09-18T13:59:58.154Z,100.00
2023-09-18T14:02:28.648Z,100.00
2023-09-18T14:04:55.807Z,100.00
2023-09-18T14:07:23.359Z,100.00
2023-09-18T14:09:50.176Z,100.00
2023-09-18T14:12:17.164Z,100.00
2023-09-18T14:14:45.066Z,100.00
2023-09-18T14:17:12.385Z,100.00
2023-09-18T14:19:39.708Z,100.00
2023-09-18T14:22:07.478Z,100.00
2023-09-18T14:24:37.282Z,100.00
2023-09-18T14:27:05.134Z,100.00
2023-09-18T14:29:32.013Z,100.00
2023-09-18T14:31:58.861Z,100.00
2023-09-18T14:34:25.622Z,100.00
2023-09-18T14:36:52.757Z,100.00
2023-09-18T14:39:19.783Z,100.00
2023-09-18T14:41:46.759Z,100.00
2023-09-18T14:44:13.962Z,100.00
2023-09-18T14:46:40.957Z,100.00
2023-09-18T14:49:08.755Z,100.00
2023-09-18T14:51:36.416Z,100.00
2023-09-18T14:54:05.609Z,100.00
2023-09-18T14:56:32.732Z,100.00
2023-09-18T14:58:59.557Z,100.00
2023-09-18T15:01:28.757Z,100.00
2023-09-18T15:03:56.173Z,100.00
2023-09-18T15:06:23.065Z,100.00
2023-09-18T15:08:49.950Z,100.00
2023-09-18T15:11:20.360Z,100.00
2023-09-18T15:13:47.299Z,100.00
2023-09-18T15:16:14.144Z,100.00
2023-09-18T15:18:40.945Z,100.00
2023-09-18T15:21:08.095Z,100.00
2023-09-18T15:23:35.033Z,100.00
2023-09-18T15:26:02.651Z,100.00
2023-09-18T15:28:31.058Z,100.00
2023-09-18T15:30:58.398Z,100.00
2023-09-18T15:33:26.534Z,100.00
2023-09-18T15:35:54.286Z,100.00
2023-09-18T15:38:22.434Z,100.00
2023-09-18T15:40:50.275Z,100.00
2023-09-18T15:43:18.962Z,100.00
2023-09-18T15:45:46.042Z,100.00
2023-09-18T15:48:12.823Z,100.00
2023-09-18T15:50:39.808Z,100.00
2023-09-18T15:53:06.668Z,100.00
2023-09-18T15:55:33.399Z,100.00
2023-09-18T15:58:00.198Z,100.00
2023-09-18T16:00:27.037Z,100.00
2023-09-18T16:02:53.962Z,100.00
2023-09-18T16:05:26.757Z,100.00
2023-09-18T16:08:04.433Z,100.00
2023-09-18T16:10:33.493Z,100.00
2023-09-18T16:13:00.975Z,100.00
2023-09-18T16:15:30.873Z,100.00
2023-09-18T16:17:57.909Z,100.00
2023-09-18T16:20:24.840Z,100.00
2023-09-18T16:22:51.835Z,100.00
2023-09-18T16:25:18.968Z,100.00
2023-09-18T16:27:45.777Z,100.00
2023-09-18T16:30:13.524Z,100.00
2023-09-18T16:32:40.782Z,100.00
2023-09-18T16:35:08.363Z,100.00
2023-09-18T16:37:36.221Z,100.00
2023-09-18T16:40:04.670Z,100.00
2023-09-18T16:42:31.548Z,100.00
2023-09-18T16:45:01.139Z,100.00
2023-09-18T16:47:28.278Z,100.00
2023-09-18T16:49:55.765Z,100.00
2023-09-18T16:52:23.369Z,100.00
2023-09-18T16:54:50.710Z,100.00
2023-09-18T16:57:18.010Z,100.00
2023-09-18T16:59:44.796Z,100.00
2023-09-18T17:02:11.919Z,100.00
2023-09-18T17:04:41.482Z,100.00
2023-09-18T17:07:12.105Z,100.00
2023-09-18T17:09:39.221Z,100.00
2023-09-18T17:12:06.620Z,100.00
2023-09-18T17:14:33.589Z,100.00
2023-09-18T17:17:00.388Z,100.00
2023-09-18T17:19:27.493Z,100.00
2023-09-18T17:21:54.232Z,100.00
2023-09-18T17:24:21.083Z,100.00
2023-09-18T17:26:48.303Z,100.00
2023-09-18T17:29:15.105Z,100.00
2023-09-18T17:31:41.843Z,100.00
2023-09-18T17:34:08.564Z,100.00
2023-09-18T17:39:05.683Z,100.00
2023-09-18T17:41:32.515Z,100.00
2023-09-18T17:43:59.372Z,100.00
2023-09-18T17:46:26.652Z,100.00
2023-09-18T17:48:53.435Z,100.00
2023-09-18T17:51:20.398Z,100.00
2023-09-18T17:53:47.212Z,100.00
2023-09-18T17:56:14.098Z,100.00
2023-09-18T17:58:42.946Z,100.00
2023-09-18T18:01:11.257Z,100.00
2023-09-18T18:03:41.138Z,100.00
2023-09-18T18:06:11.972Z,100.00
2023-09-18T18:08:38.912Z,100.00
2023-09-18T18:11:05.834Z,100.00
2023-09-18T18:13:33.042Z,100.00
2023-09-18T18:15:59.943Z,100.00
2023-09-18T18:18:26.957Z,100.00
2023-09-18T18:20:56.573Z,100.00
2023-09-18T18:23:23.512Z,100.00
2023-09-18T18:25:53.506Z,100.00
2023-09-18T18:28:20.369Z,100.00
2023-09-18T18:30:51.508Z,100.00
2023-09-18T18:33:22.066Z,100.00
2023-09-18T18:35:49.915Z,100.00
2023-09-18T18:38:16.773Z,100.00
2023-09-18T18:40:44.563Z,100.00
2023-09-18T18:43:16.687Z,100.00
2023-09-18T18:45:44.220Z,100.00
2023-09-18T18:48:11.271Z,100.00
2023-09-18T18:50:40.242Z,100.00
2023-09-18T18:53:09.104Z,100.00
2023-09-18T18:55:36.054Z,100.00
2023-09-18T18:58:04.267Z,100.00
2023-09-18T19:00:31.450Z,100.00
2023-09-18T19:02:58.420Z,100.00
2023-09-18T19:05:25.652Z,100.00
2023-09-18T19:07:52.579Z,100.00
2023-09-18T19:10:19.393Z,100.00
2023-09-18T19:12:47.709Z,100.00
2023-09-18T19:15:14.978Z,100.00
2023-09-18T19:17:42.425Z,100.00
2023-09-18T19:20:09.522Z,100.00
2023-09-18T19:22:36.324Z,100.00
2023-09-18T19:25:05.884Z,100.00
2023-09-18T19:27:37.828Z,100.00
2023-09-18T19:30:08.250Z,100.00
2023-09-18T19:32:39.494Z,100.00
2023-09-18T19:35:07.263Z,100.00
2023-09-18T19:37:34.527Z,100.00
2023-09-18T19:40:01.319Z,100.00
2023-09-18T19:42:28.168Z,100.00
2023-09-18T19:44:55.532Z,100.00
2023-09-18T19:47:23.358Z,100.00
2023-09-18T19:49:50.157Z,100.00
2023-09-18T19:52:18.827Z,100.00
2023-09-18T19:54:46.028Z,100.00
2023-09-18T19:57:12.996Z,100.00
2023-09-18T19:59:40.223Z,100.00
2023-09-18T20:02:07.906Z,100.00
2023-09-18T20:04:35.112Z,100.00
2023-09-18T20:07:02.206Z,100.00
2023-09-18T20:09:29.584Z,100.00
2023-09-18T20:11:56.323Z,100.00
2023-09-18T20:14:31.223Z,100.00
2023-09-18T20:16:59.183Z,100.00
2023-09-18T20:19:26.083Z,100.00
2023-09-18T20:21:53.485Z,100.00
2023-09-18T20:24:20.983Z,100.00
2023-09-18T20:26:49.221Z,100.00
2023-09-18T20:29:16.882Z,100.00
2023-09-18T20:31:44.149Z,100.00
2023-09-18T20:34:11.132Z,100.00
2023-09-18T20:36:37.991Z,100.00
2023-09-18T20:39:06.059Z,100.00
2023-09-18T20:41:33.730Z,100.00
2023-09-18T20:44:01.531Z,100.00
2023-09-18T20:46:31.943Z,100.00
2023-09-18T20:51:32.163Z,100.00
2023-09-18T20:54:03.624Z,100.00
2023-09-18T20:56:32.223Z,100.00
2023-09-18T20:59:02.716Z,100.00
2023-09-18T21:01:31.062Z,100.00
2023-09-18T21:03:58.346Z,100.00
2023-09-18T21:06:25.454Z,100.00
2023-09-18T21:08:52.284Z,100.00
2023-09-18T21:11:19.306Z,100.00
2023-09-18T21:13:47.564Z,100.00
2023-09-18T21:16:18.030Z,100.00
2023-09-18T21:18:45.395Z,100.00
2023-09-18T21:21:17.153Z,100.00
2023-09-18T21:23:45.807Z,100.00
2023-09-18T21:26:13.427Z,100.00
2023-09-18T21:28:41.550Z,100.00
2023-09-18T21:31:09.889Z,100.00
2023-09-18T21:33:37.705Z,100.00
2023-09-18T21:36:15.468Z,100.00
2023-09-18T21:38:44.077Z,100.00
2023-09-18T21:41:11.159Z,100.00
2023-09-18T21:43:39.176Z,100.00
2023-09-18T21:46:06.196Z,100.00
2023-09-18T21:48:34.646Z,100.00
2023-09-18T21:51:01.738Z,100.00
2023-09-18T21:53:28.727Z,100.00
2023-09-18T21:55:55.829Z,100.00
2023-09-18T21:58:23.415Z,100.00
2023-09-18T22:01:01.105Z,100.00
2023-09-18T22:03:28.216Z,100.00
2023-09-18T22:05:55.162Z,100.00
2023-09-18T22:08:22.104Z,100.00
2023-09-18T22:10:49.139Z,100.00
2023-09-18T22:13:16.823Z,100.00
2023-09-18T22:15:43.833Z,100.00
2023-09-18T22:18:10.955Z,100.00
2023-09-18T22:20:39.400Z,100.00
2023-09-18T22:23:07.189Z,100.00
2023-09-18T22:25:34.422Z,100.00
2023-09-18T22:28:02.742Z,100.00
2023-09-18T22:30:30.339Z,100.00
2023-09-18T22:32:57.992Z,100.00
2023-09-18T22:35:25.418Z,100.00
2023-09-18T22:38:02.870Z,100.00
2023-09-18T22:40:29.498Z,100.00
2023-09-18T22:43:38.444Z,100.00
2023-09-18T22:46:43.002Z,100.00
2023-09-18T22:49:47.062Z,100.00
2023-09-18T22:52:42.021Z,100.00
2023-09-18T22:55:10.725Z,100.00
2023-09-18T22:57:43.264Z,100.00
2023-09-18T23:00:11.162Z,100.00
2023-09-18T23:02:44.093Z,100.00
2023-09-18T23:05:15.685Z,100.00
2023-09-18T23:07:45.110Z,100.00
2023-09-18T23:10:13.521Z,100.00
2023-09-18T23:12:40.404Z,100.00
2023-09-18T23:15:09.689Z,100.00
2023-09-18T23:17:36.632Z,100.00
2023-09-18T23:20:10.116Z,100.00
2023-09-18T23:22:40.090Z,100.00
2023-09-18T23:25:12.482Z,100.00
2023-09-18T23:27:41.759Z,100.00
2023-09-18T23:30:14.246Z,100.00
2023-09-18T23:32:43.967Z,100.00
2023-09-18T23:35:18.352Z,100.00
2023-09-18T23:37:45.349Z,100.00
2023-09-18T23:40:15.575Z,100.00
2023-09-18T23:42:48.465Z,100.00
2023-09-18T23:45:17.427Z,100.00
2023-09-18T23:47:48.210Z,100.00
2023-09-18T23:50:20.425Z,100.00
2023-09-18T23:52:52.909Z,100.00
2023-09-18T23:55:19.655Z,100.00
2023-09-18T23:57:55.710Z,100.00
